Terminal Aerodrome Forecast
Issued by NWS

Home | Current Version | Previous Version | Text Only | Print | Product List | Glossary On
Versions: 1 2 3 4 5 6 7 8 9 10 11 12 13
000
FTUS45 KRIW 292329
TAFBPI
TAF
KBPI 292329Z 3000/3024 18007KT P6SM FEW120
     FM300200 12006KT P6SM SCT250
     FM301800 18010KT P6SM FEW120=

USA.gov is the U.S. government's official web portal to all federal, state and local government web resources and services.